Time;durP1;ratioP1;P1;durP2;ratioP2;P2;SDS_P1;SDS_P2;PMS_P1;PMS_P2;Temp;Humidity;BMP_temperature;BMP_pressure;BME280_temperature;BME280_humidity;BME280_pressure;Samples;Min_cycle;Max_cycle;Signal;HPM_P1;HPM_P2
2024/01/03 00:02:18;;;;;;;14.40;2.55;;;8.40;99.90;;;;;;5008998;28;20045;-69
2024/01/03 00:04:44;;;;;;;11.02;2.08;;;8.40;99.90;;;;;;5017265;28;20084;-69
2024/01/03 00:07:10;;;;;;;8.20;2.17;;;8.30;99.90;;;;;;5003334;28;20048;-69
2024/01/03 00:09:36;;;;;;;8.93;2.35;;;8.40;99.90;;;;;;5003669;28;20196;-70
2024/01/03 00:12:03;;;;;;;10.05;2.05;;;8.50;99.90;;;;;;4998982;28;20702;-69
2024/01/03 00:14:31;;;;;;;12.27;2.53;;;8.60;99.90;;;;;;4991991;28;20046;-69
2024/01/03 00:17:02;;;;;;;6.10;1.95;;;8.50;99.90;;;;;;4988221;28;20046;-69
2024/01/03 00:19:28;;;;;;;9.15;2.20;;;8.50;99.90;;;;;;4982248;28;20349;-69
2024/01/03 00:21:55;;;;;;;8.40;1.75;;;8.50;99.90;;;;;;4997908;28;20150;-69
2024/01/03 00:24:21;;;;;;;11.50;2.22;;;8.40;99.90;;;;;;5001091;28;20113;-69
2024/01/03 00:26:47;;;;;;;9.55;1.85;;;8.30;99.90;;;;;;4992140;28;20129;-69
2024/01/03 00:29:53;;;;;;;8.38;1.90;;;8.50;99.90;;;;;;4996502;28;20125;-70
2024/01/03 00:32:20;;;;;;;10.23;2.17;;;8.40;99.90;;;;;;5003196;28;20258;-69
2024/01/03 00:34:45;;;;;;;9.20;1.85;;;8.30;99.90;;;;;;5007523;28;20251;-69
2024/01/03 00:37:14;;;;;;;8.20;1.98;;;8.40;99.90;;;;;;5002335;28;20444;-69
2024/01/03 00:39:40;;;;;;;8.30;1.92;;;8.30;99.90;;;;;;5003725;28;20409;-69
2024/01/03 00:42:06;;;;;;;7.32;1.70;;;8.20;99.90;;;;;;4985466;28;20293;-69
2024/01/03 00:44:31;;;;;;;8.23;2.08;;;8.40;99.90;;;;;;5031583;28;20049;-69
2024/01/03 00:46:57;;;;;;;6.53;1.77;;;8.20;99.90;;;;;;5007343;28;20045;-69
2024/01/03 00:49:26;;;;;;;7.45;1.88;;;8.30;99.90;;;;;;4997799;28;20072;-70
2024/01/03 00:51:56;;;;;;;8.52;1.80;;;8.20;99.90;;;;;;4987156;28;20034;-69
2024/01/03 00:54:24;;;;;;;8.70;2.10;;;8.10;99.90;;;;;;5017210;28;20389;-69
2024/01/03 00:56:51;;;;;;;10.30;1.90;;;8.30;99.90;;;;;;5001283;28;20046;-69
2024/01/03 00:59:17;;;;;;;9.20;2.30;;;8.10;99.90;;;;;;4996735;28;20053;-69
2024/01/03 01:01:44;;;;;;;7.47;2.05;;;8.30;99.90;;;;;;4989659;28;20034;-69
2024/01/03 01:04:10;;;;;;;6.28;1.73;;;8.20;99.90;;;;;;4990506;28;20049;-69
2024/01/03 01:06:37;;;;;;;9.38;2.22;;;8.30;99.90;;;;;;4995563;28;20049;-69
2024/01/03 01:09:04;;;;;;;9.88;2.20;;;8.10;99.90;;;;;;5005510;28;20042;-69
2024/01/03 01:11:30;;;;;;;6.28;1.88;;;8.20;99.90;;;;;;5001041;28;20042;-69
2024/01/03 01:13:56;;;;;;;7.28;1.98;;;8.10;99.90;;;;;;5031578;28;20089;-69
2024/01/03 01:16:22;;;;;;;9.13;2.25;;;8.10;99.90;;;;;;4985134;28;20129;-69
2024/01/03 01:18:47;;;;;;;7.47;2.25;;;8.10;99.90;;;;;;4992122;28;20552;-69
2024/01/03 01:21:13;;;;;;;8.57;2.22;;;8.20;99.90;;;;;;5017000;28;20057;-69
2024/01/03 01:23:42;;;;;;;10.95;2.05;;;8.30;99.90;;;;;;4996458;28;20034;-69
2024/01/03 01:26:11;;;;;;;14.88;3.05;;;8.20;99.90;;;;;;4999620;28;20057;-69
2024/01/03 01:28:37;;;;;;;7.07;1.88;;;8.00;99.90;;;;;;5002837;28;20160;-69
2024/01/03 01:31:03;;;;;;;11.40;2.03;;;8.10;99.90;;;;;;4987268;28;20037;-69
2024/01/03 01:33:29;;;;;;;12.82;2.30;;;8.00;99.90;;;;;;5000424;28;20100;-69
2024/01/03 01:35:54;;;;;;;6.68;2.08;;;8.20;99.90;;;;;;4988261;28;20512;-70
2024/01/03 01:38:20;;;;;;;9.73;2.08;;;8.10;99.90;;;;;;4981742;28;20583;-69
2024/01/03 01:40:49;;;;;;;11.35;2.17;;;8.20;99.90;;;;;;4985307;28;20112;-69
2024/01/03 01:43:15;;;;;;;9.55;2.03;;;8.10;99.90;;;;;;5014239;28;20038;-69
2024/01/03 01:45:41;;;;;;;9.40;2.20;;;8.20;99.90;;;;;;5001326;28;20038;-69
2024/01/03 01:48:08;;;;;;;10.15;1.70;;;8.30;99.90;;;;;;5034076;28;20412;-69
2024/01/03 01:50:39;;;;;;;12.90;2.17;;;8.20;99.90;;;;;;4992622;28;20114;-69
2024/01/03 01:53:07;;;;;;;6.10;1.92;;;8.20;99.90;;;;;;5002476;28;20073;-69
2024/01/03 01:55:39;;;;;;;6.57;1.77;;;8.40;99.90;;;;;;4998327;28;20049;-69
2024/01/03 01:58:07;;;;;;;7.57;1.77;;;8.30;99.90;;;;;;4984055;28;20042;-69
2024/01/03 02:00:33;;;;;;;8.60;1.88;;;8.40;99.90;;;;;;4988409;28;20045;-69
2024/01/03 02:03:00;;;;;;;10.93;2.05;;;8.40;99.90;;;;;;4989655;28;20046;-70
2024/01/03 02:05:26;;;;;;;9.05;1.77;;;8.40;99.90;;;;;;4983810;28;20042;-69
2024/01/03 02:07:52;;;;;;;7.18;2.08;;;8.50;99.90;;;;;;4994643;28;20040;-69
2024/01/03 02:10:18;;;;;;;10.68;2.15;;;8.50;99.90;;;;;;4998739;28;20041;-69
2024/01/03 02:12:43;;;;;;;9.25;2.28;;;8.50;99.90;;;;;;4999851;28;20103;-69
2024/01/03 02:15:09;;;;;;;9.50;2.22;;;8.50;99.90;;;;;;4995825;28;20085;-69
2024/01/03 02:17:38;;;;;;;9.43;2.15;;;8.50;99.90;;;;;;4994563;28;20042;-69
2024/01/03 02:20:04;;;;;;;6.95;1.40;;;8.60;99.90;;;;;;4983477;28;20072;-69
2024/01/03 02:22:46;;;;;;;10.20;1.75;;;8.50;99.90;;;;;;4995651;28;20650;-69
2024/01/03 02:25:12;;;;;;;7.95;1.38;;;8.60;99.90;;;;;;5017704;28;20077;-69
2024/01/03 02:27:43;;;;;;;9.05;1.55;;;8.70;99.90;;;;;;4992159;28;20083;-69
2024/01/03 02:30:11;;;;;;;8.23;1.85;;;8.70;99.90;;;;;;4987662;28;20195;-69
2024/01/03 02:32:37;;;;;;;5.20;1.55;;;8.80;99.90;;;;;;5033038;28;20072;-69
2024/01/03 02:35:05;;;;;;;3.55;1.15;;;8.70;99.90;;;;;;4987860;28;20057;-69
2024/01/03 02:37:31;;;;;;;7.72;2.35;;;8.70;99.90;;;;;;4997807;28;20137;-70
2024/01/03 02:39:57;;;;;;;10.18;1.30;;;8.80;99.90;;;;;;4994137;28;20396;-69
2024/01/03 02:42:23;;;;;;;5.15;1.42;;;8.80;99.90;;;;;;5015436;28;20045;-69
2024/01/03 02:44:49;;;;;;;7.80;1.27;;;8.80;99.90;;;;;;4998934;28;20045;-69
2024/01/03 02:47:14;;;;;;;5.90;1.33;;;8.80;99.90;;;;;;4997211;28;20488;-69
2024/01/03 02:49:40;;;;;;;4.70;1.48;;;8.90;99.90;;;;;;4999131;28;20042;-69
2024/01/03 02:52:06;;;;;;;6.10;1.50;;;8.90;99.90;;;;;;4998240;28;20593;-69
2024/01/03 02:54:32;;;;;;;4.97;1.45;;;8.90;99.90;;;;;;4996131;28;20532;-69
2024/01/03 02:56:57;;;;;;;9.75;1.73;;;9.00;99.90;;;;;;5001040;28;21492;-69
2024/01/03 02:59:26;;;;;;;6.25;1.30;;;8.90;99.90;;;;;;4991399;28;20097;-70
2024/01/03 03:01:52;;;;;;;3.42;1.20;;;9.00;99.90;;;;;;4984963;28;20045;-69
2024/01/03 03:04:17;;;;;;;5.85;1.70;;;9.00;99.90;;;;;;4993002;28;20038;-70
2024/01/03 03:06:43;;;;;;;6.95;1.48;;;8.90;99.90;;;;;;4996847;28;20044;-69
2024/01/03 03:09:09;;;;;;;5.72;1.05;;;8.90;99.90;;;;;;4986268;28;20113;-69
2024/01/03 03:11:35;;;;;;;7.47;2.50;;;9.00;99.90;;;;;;5009748;28;20476;-69
2024/01/03 03:14:00;;;;;;;5.53;1.65;;;8.90;99.90;;;;;;4990495;28;20133;-69
2024/01/03 03:16:26;;;;;;;8.65;2.00;;;9.00;99.90;;;;;;4998099;28;20058;-69
2024/01/03 03:18:52;;;;;;;8.18;1.50;;;9.00;99.90;;;;;;5004157;28;20077;-69
2024/01/03 03:21:18;;;;;;;4.75;1.35;;;9.00;99.90;;;;;;5002288;28;20048;-69
2024/01/03 03:23:43;;;;;;;7.35;1.50;;;9.00;99.90;;;;;;5033495;28;20637;-69
2024/01/03 03:26:11;;;;;;;8.18;1.63;;;8.90;99.90;;;;;;5007425;28;20037;-70
2024/01/03 03:28:37;;;;;;;4.32;1.10;;;8.90;99.90;;;;;;4996067;28;20092;-70
2024/01/03 03:31:06;;;;;;;6.53;1.52;;;8.90;99.90;;;;;;4997296;28;20046;-70
2024/01/03 03:33:32;;;;;;;7.40;1.77;;;9.00;99.90;;;;;;4986577;28;20185;-69
2024/01/03 03:35:58;;;;;;;9.18;1.60;;;8.90;99.90;;;;;;5006991;28;20081;-69
2024/01/03 03:38:24;;;;;;;6.38;1.45;;;8.90;99.90;;;;;;4992945;28;20485;-70
2024/01/03 03:40:49;;;;;;;5.68;1.67;;;8.90;99.90;;;;;;5028973;28;20050;-69
2024/01/03 03:43:15;;;;;;;8.05;2.10;;;9.00;99.90;;;;;;4990186;28;20134;-69
2024/01/03 03:45:41;;;;;;;7.60;1.50;;;8.90;99.90;;;;;;4993290;28;20176;-69
2024/01/03 03:48:07;;;;;;;7.90;2.08;;;9.00;99.90;;;;;;4994099;28;20042;-69
2024/01/03 03:50:32;;;;;;;8.35;2.10;;;8.90;99.90;;;;;;4995512;28;20103;-69
2024/01/03 03:52:58;;;;;;;6.38;1.77;;;8.80;99.90;;;;;;4985570;28;20076;-69
2024/01/03 03:55:25;;;;;;;5.93;1.20;;;8.70;99.90;;;;;;4998128;28;20055;-70
2024/01/03 03:57:51;;;;;;;8.95;1.77;;;8.80;99.90;;;;;;4986116;28;20037;-69
2024/01/03 04:00:17;;;;;;;5.88;1.50;;;8.80;99.90;;;;;;4995800;28;20232;-69
2024/01/03 04:02:44;;;;;;;6.10;1.27;;;8.70;99.90;;;;;;4985858;28;20073;-70
2024/01/03 04:05:10;;;;;;;8.00;1.30;;;8.70;99.90;;;;;;4999608;28;20038;-70
2024/01/03 04:07:37;;;;;;;6.82;1.50;;;8.70;99.90;;;;;;4998754;28;20061;-70
2024/01/03 04:10:03;;;;;;;5.93;1.33;;;8.60;99.90;;;;;;5005067;28;20080;-70
2024/01/03 04:12:28;;;;;;;5.00;1.25;;;8.60;99.90;;;;;;5001837;28;20073;-69
2024/01/03 04:14:54;;;;;;;8.35;1.63;;;8.50;99.90;;;;;;4986923;28;20049;-69
2024/01/03 04:17:21;;;;;;;3.03;0.95;;;8.50;99.90;;;;;;4994932;28;20080;-69
2024/01/03 04:19:46;;;;;;;6.28;1.35;;;8.40;99.90;;;;;;4997165;28;20042;-69
2024/01/03 04:22:12;;;;;;;5.85;1.40;;;8.60;99.90;;;;;;5018744;28;20052;-69
2024/01/03 04:24:38;;;;;;;6.03;1.48;;;8.50;99.90;;;;;;5035112;28;20038;-69
2024/01/03 04:27:06;;;;;;;6.32;1.67;;;8.50;99.90;;;;;;5012768;28;20037;-69
2024/01/03 04:29:32;;;;;;;3.85;1.20;;;8.40;99.90;;;;;;4988337;28;20042;-70
2024/01/03 04:31:58;;;;;;;5.50;1.20;;;8.20;99.90;;;;;;5008536;28;20311;-69
2024/01/03 04:34:24;;;;;;;3.17;1.48;;;8.20;99.90;;;;;;5004052;28;20533;-69
2024/01/03 04:36:49;;;;;;;3.70;1.13;;;8.20;99.90;;;;;;5002907;28;20131;-69
2024/01/03 04:39:16;;;;;;;3.80;0.90;;;8.30;99.90;;;;;;5013239;28;20091;-69
2024/01/03 04:41:42;;;;;;;3.10;1.10;;;8.30;99.90;;;;;;5016294;28;20113;-69
2024/01/03 04:44:08;;;;;;;2.45;0.70;;;8.20;99.90;;;;;;4985097;28;20124;-69
2024/01/03 04:46:33;;;;;;;3.05;1.05;;;8.30;99.90;;;;;;4987500;28;20465;-69
2024/01/03 04:48:59;;;;;;;4.78;1.13;;;8.30;99.90;;;;;;4997291;28;20045;-69
2024/01/03 04:51:25;;;;;;;2.97;1.00;;;8.30;99.90;;;;;;4988222;28;20504;-69
2024/01/03 04:53:51;;;;;;;5.18;1.25;;;8.20;99.90;;;;;;4989063;28;20073;-69
2024/01/03 04:56:17;;;;;;;3.72;1.08;;;8.30;99.90;;;;;;4999438;28;20085;-69
2024/01/03 04:58:43;;;;;;;2.83;1.08;;;8.40;99.90;;;;;;5035757;28;20096;-69
2024/01/03 05:01:09;;;;;;;7.13;1.25;;;8.40;99.90;;;;;;5000680;28;20042;-69
2024/01/03 05:03:35;;;;;;;3.83;1.55;;;8.40;99.90;;;;;;5001851;28;20133;-69
2024/01/03 05:06:01;;;;;;;5.93;1.40;;;8.40;99.90;;;;;;4999598;28;20128;-68
2024/01/03 05:08:27;;;;;;;10.25;1.73;;;8.40;99.90;;;;;;4996628;28;20470;-68
2024/01/03 05:10:53;;;;;;;5.35;1.50;;;8.30;99.90;;;;;;5003333;28;20053;-68
2024/01/03 05:13:18;;;;;;;5.63;1.52;;;8.20;99.90;;;;;;5034642;28;20045;-68
2024/01/03 05:15:44;;;;;;;3.65;1.30;;;8.20;99.90;;;;;;4986095;28;20336;-68
2024/01/03 05:18:10;;;;;;;4.20;1.30;;;8.20;99.90;;;;;;4997112;28;20433;-68
2024/01/03 05:20:36;;;;;;;5.85;1.23;;;8.20;99.90;;;;;;4998500;28;20049;-68
2024/01/03 05:23:01;;;;;;;5.75;1.30;;;8.20;99.90;;;;;;5000962;28;20053;-68
2024/01/03 05:25:27;;;;;;;5.57;1.35;;;8.30;99.90;;;;;;5019252;28;20299;-68
2024/01/03 05:27:53;;;;;;;9.57;1.95;;;8.40;99.90;;;;;;4994648;28;20466;-68
2024/01/03 05:30:19;;;;;;;8.23;1.73;;;8.50;99.90;;;;;;5006661;28;20046;-68
2024/01/03 05:32:44;;;;;;;12.73;2.30;;;8.50;99.90;;;;;;4988206;28;20086;-68
2024/01/03 05:35:10;;;;;;;14.88;3.08;;;8.50;99.90;;;;;;4999271;28;20081;-68
2024/01/03 05:37:36;;;;;;;13.60;3.38;;;8.70;99.90;;;;;;5033498;28;20335;-69
2024/01/03 05:40:02;;;;;;;19.33;3.85;;;8.70;99.90;;;;;;5004005;28;20042;-68
2024/01/03 05:42:28;;;;;;;17.52;3.15;;;8.80;99.90;;;;;;5002663;28;20099;-69
2024/01/03 05:44:54;;;;;;;17.30;4.13;;;8.80;99.90;;;;;;4987679;28;20041;-69
2024/01/03 05:47:20;;;;;;;17.33;3.13;;;8.90;99.90;;;;;;5036632;28;20041;-68
2024/01/03 05:49:45;;;;;;;21.83;3.42;;;8.90;99.90;;;;;;4995891;28;20044;-69
2024/01/03 05:52:11;;;;;;;20.08;3.40;;;8.80;99.90;;;;;;5030614;28;20068;-69
2024/01/03 05:54:37;;;;;;;16.25;3.38;;;8.80;99.90;;;;;;5014083;28;20053;-69
2024/01/03 05:57:03;;;;;;;13.80;3.10;;;8.80;99.90;;;;;;4993009;28;20074;-69
2024/01/03 05:59:28;;;;;;;12.63;3.10;;;8.90;99.90;;;;;;4983015;28;20037;-69
2024/01/03 06:01:54;;;;;;;17.42;2.80;;;8.80;99.90;;;;;;4998247;28;20693;-69
2024/01/03 06:04:20;;;;;;;15.38;3.28;;;8.80;99.90;;;;;;4996816;28;20044;-69
2024/01/03 06:06:46;;;;;;;14.45;3.08;;;8.70;99.90;;;;;;5004855;28;20368;-69
2024/01/03 06:09:11;;;;;;;16.58;3.50;;;8.70;99.90;;;;;;4989027;28;20033;-69
2024/01/03 06:11:37;;;;;;;15.65;3.30;;;8.80;99.90;;;;;;4998176;28;20053;-69
2024/01/03 06:14:03;;;;;;;15.50;3.20;;;8.70;99.90;;;;;;5004098;28;20104;-69
2024/01/03 06:16:28;;;;;;;11.05;3.00;;;8.80;99.90;;;;;;5019852;28;20049;-69
2024/01/03 06:18:54;;;;;;;16.48;2.53;;;8.70;99.90;;;;;;5002204;28;20063;-69
2024/01/03 06:21:20;;;;;;;22.80;4.47;;;8.70;99.90;;;;;;5015709;28;20172;-69
2024/01/03 06:23:46;;;;;;;12.65;2.80;;;8.70;99.90;;;;;;5000666;28;20437;-69
2024/01/03 06:26:12;;;;;;;19.13;3.05;;;8.70;99.90;;;;;;5001350;28;20042;-69
2024/01/03 06:28:38;;;;;;;17.27;2.95;;;8.60;99.90;;;;;;5029413;28;20245;-69
2024/01/03 06:31:04;;;;;;;15.07;2.83;;;8.60;99.90;;;;;;4997161;28;20042;-69
2024/01/03 06:33:29;;;;;;;18.65;3.58;;;8.70;99.90;;;;;;4995921;28;20149;-69
2024/01/03 06:35:58;;;;;;;11.68;3.38;;;8.80;99.90;;;;;;4985532;28;20138;-69
2024/01/03 06:38:24;;;;;;;12.05;2.75;;;8.80;99.90;;;;;;4981937;28;20412;-69
2024/01/03 06:40:50;;;;;;;11.70;3.22;;;8.80;99.90;;;;;;5004770;28;20050;-69
2024/01/03 06:43:16;;;;;;;18.08;3.00;;;8.80;99.90;;;;;;4997090;28;20128;-69
2024/01/03 06:45:42;;;;;;;14.73;2.95;;;8.90;99.90;;;;;;4995940;28;20516;-69
2024/01/03 06:48:08;;;;;;;14.25;3.10;;;8.80;99.90;;;;;;5031422;28;20045;-69
2024/01/03 06:50:34;;;;;;;13.82;3.00;;;8.60;99.90;;;;;;5034942;28;20522;-69
2024/01/03 06:52:59;;;;;;;17.02;2.92;;;8.70;99.90;;;;;;4983808;28;20381;-69
2024/01/03 06:55:25;;;;;;;17.52;3.45;;;8.70;99.90;;;;;;5003027;28;20060;-69
2024/01/03 06:57:53;;;;;;;17.25;3.60;;;8.60;99.90;;;;;;4987881;28;20108;-69
2024/01/03 07:00:19;;;;;;;17.38;3.72;;;8.60;99.90;;;;;;4998746;28;21475;-69
2024/01/03 07:02:44;;;;;;;12.82;2.35;;;8.60;99.90;;;;;;5033512;28;20203;-69
2024/01/03 07:05:10;;;;;;;16.73;2.55;;;8.70;99.90;;;;;;5029472;28;20121;-69
2024/01/03 07:07:36;;;;;;;10.55;2.30;;;8.60;99.90;;;;;;4998698;28;20029;-69
2024/01/03 07:10:02;;;;;;;15.32;2.25;;;8.70;99.90;;;;;;5025428;28;20042;-69
2024/01/03 07:12:28;;;;;;;11.40;2.10;;;8.60;99.90;;;;;;5001083;28;20041;-69
2024/01/03 07:14:56;;;;;;;13.77;1.95;;;8.60;99.90;;;;;;5000037;28;20072;-69
2024/01/03 07:17:22;;;;;;;8.38;1.85;;;8.70;99.90;;;;;;4984423;28;20037;-69
2024/01/03 07:19:47;;;;;;;5.35;1.95;;;8.70;99.90;;;;;;4999025;28;20095;-69
2024/01/03 07:22:13;;;;;;;9.40;2.10;;;8.70;99.90;;;;;;5013879;28;20038;-69
2024/01/03 07:24:39;;;;;;;9.77;1.50;;;8.80;99.90;;;;;;5001894;28;20081;-69
2024/01/03 07:27:05;;;;;;;12.07;2.00;;;8.80;99.90;;;;;;5013963;28;20042;-69
2024/01/03 07:29:30;;;;;;;15.25;2.75;;;8.80;99.90;;;;;;4992994;28;20607;-69
2024/01/03 07:31:56;;;;;;;12.43;2.42;;;8.90;99.90;;;;;;4989256;28;20045;-69
2024/01/03 07:34:22;;;;;;;14.73;2.83;;;8.90;99.90;;;;;;5013677;28;20389;-69
2024/01/03 07:36:49;;;;;;;12.90;2.30;;;8.90;99.90;;;;;;5007899;28;20560;-69
2024/01/03 07:39:15;;;;;;;10.10;1.85;;;8.90;99.90;;;;;;4991606;28;20493;-69
2024/01/03 07:41:41;;;;;;;10.18;2.13;;;9.00;99.90;;;;;;4998681;28;20106;-69
2024/01/03 07:44:06;;;;;;;9.27;2.30;;;9.10;99.90;;;;;;5005828;28;20034;-69
2024/01/03 07:46:32;;;;;;;15.25;2.05;;;9.00;99.90;;;;;;5006810;28;20045;-69
2024/01/03 07:48:58;;;;;;;13.32;2.58;;;9.10;99.90;;;;;;5006495;28;20057;-70
2024/01/03 07:51:24;;;;;;;16.00;2.58;;;9.10;99.90;;;;;;5003946;28;20049;-69
2024/01/03 07:53:50;;;;;;;11.35;2.33;;;9.10;99.90;;;;;;4988193;28;20092;-69
2024/01/03 07:56:15;;;;;;;14.50;2.67;;;9.20;99.90;;;;;;5001644;28;20045;-69
2024/01/03 07:58:41;;;;;;;10.95;2.45;;;9.10;99.90;;;;;;4985682;28;20563;-69
2024/01/03 08:01:07;;;;;;;10.15;2.45;;;9.20;99.90;;;;;;5000397;28;20065;-69
2024/01/03 08:03:32;;;;;;;7.78;1.90;;;9.00;99.90;;;;;;4998604;28;20042;-69
2024/01/03 08:05:58;;;;;;;11.02;2.10;;;9.10;99.90;;;;;;4985857;28;20107;-69
2024/01/03 08:08:24;;;;;;;11.23;2.35;;;9.10;99.90;;;;;;4987146;28;20103;-69
2024/01/03 08:10:50;;;;;;;6.43;2.30;;;9.10;99.90;;;;;;5004103;28;20595;-69
2024/01/03 08:13:16;;;;;;;10.65;2.20;;;9.10;99.90;;;;;;5002998;28;20545;-69
2024/01/03 08:15:42;;;;;;;11.13;2.38;;;9.10;99.90;;;;;;5029214;28;20065;-69
2024/01/03 08:18:08;;;;;;;7.82;2.13;;;9.00;99.90;;;;;;4979595;28;20073;-70
2024/01/03 08:20:34;;;;;;;10.85;2.25;;;9.10;99.90;;;;;;4982784;28;20040;-70
2024/01/03 08:23:00;;;;;;;9.15;2.30;;;9.00;99.90;;;;;;5003062;28;20049;-70
2024/01/03 08:25:25;;;;;;;14.77;2.95;;;9.00;99.90;;;;;;5001194;28;20077;-69
2024/01/03 08:27:51;;;;;;;9.57;2.05;;;9.00;99.90;;;;;;5022689;28;20042;-69
2024/01/03 08:30:17;;;;;;;5.57;1.88;;;8.80;99.90;;;;;;5030890;28;20112;-69
2024/01/03 08:32:43;;;;;;;16.75;2.40;;;8.60;99.90;;;;;;4998361;28;20064;-69
2024/01/03 08:35:09;;;;;;;11.68;2.42;;;8.50;99.90;;;;;;4982133;28;20073;-69
2024/01/03 08:37:34;;;;;;;10.00;2.28;;;8.70;99.90;;;;;;4986730;28;20083;-69
2024/01/03 08:40:04;;;;;;;12.93;2.47;;;8.60;99.90;;;;;;4999974;28;20121;-69
2024/01/03 08:42:30;;;;;;;7.63;2.08;;;8.60;99.90;;;;;;5000458;28;20041;-69
2024/01/03 08:44:56;;;;;;;10.85;2.60;;;8.60;99.90;;;;;;4982887;28;20147;-69
2024/01/03 08:47:21;;;;;;;12.10;2.40;;;8.50;99.90;;;;;;4997841;28;20045;-70
2024/01/03 08:49:47;;;;;;;12.95;2.83;;;8.40;99.90;;;;;;5016917;28;20072;-70
2024/01/03 08:52:13;;;;;;;12.27;2.72;;;8.50;99.90;;;;;;4996693;28;20041;-69
2024/01/03 08:54:40;;;;;;;8.88;2.75;;;8.40;99.90;;;;;;5002775;28;20095;-69
2024/01/03 08:57:08;;;;;;;10.52;2.63;;;8.60;99.90;;;;;;5014572;28;20053;-69
2024/01/03 08:59:36;;;;;;;12.88;2.75;;;8.60;99.90;;;;;;5002067;28;20038;-69
2024/01/03 09:02:02;;;;;;;13.88;2.97;;;8.50;99.90;;;;;;5004496;28;20401;-69
2024/01/03 09:04:28;;;;;;;11.82;2.45;;;8.60;99.90;;;;;;4996074;28;20046;-69
2024/01/03 09:06:54;;;;;;;15.70;2.97;;;8.80;99.90;;;;;;5000336;28;20052;-69
2024/01/03 09:09:19;;;;;;;13.10;2.17;;;8.80;99.90;;;;;;4995835;28;20037;-70
2024/01/03 09:11:45;;;;;;;13.00;2.30;;;8.90;99.90;;;;;;4993096;28;20477;-69
2024/01/03 09:14:13;;;;;;;9.85;2.80;;;8.80;99.90;;;;;;4983955;28;20449;-69
2024/01/03 09:16:39;;;;;;;9.73;2.35;;;8.90;99.90;;;;;;4992832;28;20046;-69
2024/01/03 09:19:05;;;;;;;9.50;2.35;;;8.90;99.90;;;;;;5009005;28;20045;-70
2024/01/03 09:21:31;;;;;;;8.30;2.25;;;8.90;99.90;;;;;;4995233;28;20133;-69
2024/01/03 09:23:58;;;;;;;10.40;2.42;;;8.80;99.90;;;;;;5031194;28;20056;-69
2024/01/03 09:26:24;;;;;;;14.38;2.50;;;8.90;99.90;;;;;;4987931;28;20126;-69
2024/01/03 09:28:51;;;;;;;10.73;2.60;;;8.90;99.90;;;;;;4984978;28;20436;-69
2024/01/03 09:31:17;;;;;;;13.52;2.83;;;9.00;99.90;;;;;;5018802;28;20042;-69
2024/01/03 09:33:43;;;;;;;11.20;2.67;;;9.00;99.90;;;;;;5001099;28;20121;-69
2024/01/03 09:36:21;;;;;;;10.88;2.40;;;9.10;99.90;;;;;;4998412;28;20390;-69
2024/01/03 09:38:47;;;;;;;12.68;2.40;;;9.10;99.90;;;;;;4997491;28;20180;-70
2024/01/03 09:41:14;;;;;;;9.27;2.67;;;9.10;99.90;;;;;;4994565;28;20108;-69
2024/01/03 09:43:44;;;;;;;9.48;2.00;;;9.10;99.90;;;;;;5000880;28;20052;-69
2024/01/03 09:46:11;;;;;;;10.60;2.38;;;9.20;99.90;;;;;;4999378;28;21108;-70
2024/01/03 09:48:42;;;;;;;10.07;2.25;;;9.20;99.90;;;;;;4987577;28;20105;-69
2024/01/03 09:51:08;;;;;;;12.50;3.15;;;9.20;99.90;;;;;;5002257;28;20042;-70
2024/01/03 09:53:36;;;;;;;14.65;3.03;;;9.30;99.90;;;;;;4978399;28;20124;-70
2024/01/03 09:56:02;;;;;;;9.45;3.05;;;9.20;99.90;;;;;;5029209;28;20046;-70
2024/01/03 09:58:28;;;;;;;10.48;2.28;;;9.30;99.90;;;;;;4994792;28;20111;-70
2024/01/03 10:00:54;;;;;;;11.75;2.63;;;9.30;99.90;;;;;;5012320;28;20054;-70
2024/01/03 10:03:20;;;;;;;12.23;2.17;;;9.20;99.90;;;;;;5016253;28;20042;-69
2024/01/03 10:05:46;;;;;;;12.32;2.10;;;9.20;99.90;;;;;;4982527;28;20876;-69
2024/01/03 10:08:18;;;;;;;9.50;2.38;;;9.10;99.90;;;;;;5015411;28;20451;-69
2024/01/03 10:10:45;;;;;;;15.45;2.28;;;9.10;99.90;;;;;;4998194;28;20056;-70
2024/01/03 10:13:24;;;;;;;6.90;1.60;;;9.10;99.90;;;;;;5001140;28;20041;-69
2024/01/03 10:15:50;;;;;;;10.98;2.20;;;9.20;99.90;;;;;;5032837;28;20057;-70
2024/01/03 10:18:18;;;;;;;8.20;1.80;;;9.20;99.90;;;;;;5005120;28;20465;-70
2024/01/03 10:20:45;;;;;;;4.10;1.50;;;9.20;99.90;;;;;;4988824;28;20507;-70
2024/01/03 10:23:12;;;;;;;6.47;1.83;;;9.20;99.90;;;;;;4997711;28;20446;-69
2024/01/03 10:25:41;;;;;;;9.20;2.05;;;9.30;99.90;;;;;;5003891;28;20589;-70
2024/01/03 10:28:09;;;;;;;8.75;1.50;;;9.40;99.90;;;;;;4999635;28;20448;-70
2024/01/03 10:30:35;;;;;;;10.48;1.30;;;9.40;99.90;;;;;;4996760;28;20115;-69
2024/01/03 10:33:06;;;;;;;9.38;1.73;;;9.50;99.90;;;;;;4992940;28;20041;-70
2024/01/03 10:35:37;;;;;;;11.52;1.88;;;9.50;99.90;;;;;;4997283;28;20042;-70
2024/01/03 10:38:06;;;;;;;7.03;1.85;;;9.40;99.90;;;;;;4996664;28;20046;-70
2024/01/03 10:40:32;;;;;;;9.65;1.70;;;9.40;99.90;;;;;;5000081;28;20120;-70
2024/01/03 10:42:59;;;;;;;8.95;2.05;;;9.40;99.90;;;;;;5015855;28;20531;-69
2024/01/03 10:45:26;;;;;;;11.15;2.35;;;9.40;99.90;;;;;;4999684;28;20263;-70
2024/01/03 10:47:53;;;;;;;12.35;2.15;;;9.40;99.90;;;;;;4983635;28;20048;-70
2024/01/03 10:50:20;;;;;;;5.72;1.40;;;9.40;99.90;;;;;;5008451;28;20041;-70
2024/01/03 10:52:46;;;;;;;11.63;1.80;;;9.40;99.90;;;;;;5016289;28;20141;-69
2024/01/03 10:55:24;;;;;;;6.07;1.30;;;9.50;99.90;;;;;;5003192;28;20041;-70
2024/01/03 10:58:03;;;;;;;7.70;1.80;;;9.60;99.90;;;;;;5006769;28;20375;-70
2024/01/03 11:00:55;;;;;;;6.38;1.25;;;9.60;99.90;;;;;;4974595;28;20489;-70
2024/01/03 11:03:33;;;;;;;7.53;1.30;;;9.70;99.90;;;;;;5003081;28;20038;-70
2024/01/03 11:06:05;;;;;;;8.85;1.75;;;9.80;99.90;;;;;;4985971;28;20049;-70
2024/01/03 11:08:54;;;;;;;6.50;1.38;;;9.80;99.90;;;;;;4985517;28;20477;-70
2024/01/03 11:11:34;;;;;;;11.52;2.00;;;9.60;99.90;;;;;;4997088;28;20038;-70
2024/01/03 11:14:01;;;;;;;10.40;2.03;;;9.70;99.90;;;;;;4995528;28;20046;-70
2024/01/03 11:16:37;;;;;;;8.15;1.88;;;9.70;99.90;;;;;;4997160;28;20041;-70
2024/01/03 11:19:08;;;;;;;7.95;1.88;;;9.70;99.90;;;;;;4999283;28;20068;-70
2024/01/03 11:21:37;;;;;;;14.15;2.40;;;9.60;99.90;;;;;;4996561;28;20454;-69
2024/01/03 11:24:23;;;;;;;7.95;2.08;;;9.50;99.90;;;;;;4990808;28;20136;-70
2024/01/03 11:27:16;;;;;;;9.82;2.10;;;9.50;99.90;;;;;;5004724;28;20481;-70
2024/01/03 11:29:43;;;;;;;10.15;2.25;;;9.40;99.90;;;;;;4996922;28;20053;-70
2024/01/03 11:32:12;;;;;;;14.88;2.40;;;9.40;99.90;;;;;;4991463;28;20046;-70
2024/01/03 11:34:45;;;;;;;11.02;2.10;;;9.40;99.90;;;;;;5007951;28;20042;-70
2024/01/03 11:37:11;;;;;;;12.48;3.05;;;9.40;99.90;;;;;;5029841;28;20301;-70
2024/01/03 11:39:43;;;;;;;12.75;2.65;;;9.40;99.90;;;;;;5000741;28;20049;-70
2024/01/03 11:42:09;;;;;;;10.32;2.67;;;9.50;99.90;;;;;;4996814;28;20048;-70
2024/01/03 11:44:35;;;;;;;11.02;2.97;;;9.50;99.90;;;;;;4997638;28;20050;-70
2024/01/03 11:47:05;;;;;;;17.83;3.45;;;9.60;99.90;;;;;;4998115;28;20034;-70
2024/01/03 11:49:31;;;;;;;14.25;2.60;;;9.80;99.90;;;;;;5000593;28;20079;-70
2024/01/03 11:51:58;;;;;;;15.07;2.70;;;9.80;99.90;;;;;;5002837;28;20392;-70
2024/01/03 11:54:24;;;;;;;15.88;2.65;;;9.80;99.90;;;;;;4999389;28;20058;-70
2024/01/03 11:56:50;;;;;;;11.57;2.58;;;9.90;99.90;;;;;;4989919;28;20976;-70
2024/01/03 11:59:23;;;;;;;12.63;2.30;;;9.90;99.90;;;;;;5000492;28;20100;-70
2024/01/03 12:01:56;;;;;;;11.77;2.92;;;9.80;99.90;;;;;;5019582;28;20060;-70
2024/01/03 12:04:22;;;;;;;11.07;2.28;;;9.90;99.90;;;;;;5000231;28;20334;-70
2024/01/03 12:06:48;;;;;;;11.60;3.05;;;9.90;99.90;;;;;;5010122;28;20041;-70
2024/01/03 12:09:15;;;;;;;14.27;3.05;;;10.00;99.90;;;;;;4998285;28;20370;-70
2024/01/03 12:11:41;;;;;;;15.77;3.10;;;9.90;99.90;;;;;;4984075;28;20095;-70
2024/01/03 12:14:07;;;;;;;11.98;2.53;;;9.90;99.90;;;;;;4997418;28;20054;-70
2024/01/03 12:16:44;;;;;;;15.25;2.97;;;9.90;99.90;;;;;;4991189;28;20550;-70
2024/01/03 12:19:10;;;;;;;10.20;2.08;;;9.90;99.90;;;;;;4994533;28;20637;-70
2024/01/03 12:21:36;;;;;;;13.35;2.35;;;9.80;99.90;;;;;;4999717;28;20127;-70
2024/01/03 12:24:02;;;;;;;13.25;2.30;;;9.80;99.90;;;;;;4991592;28;20492;-70
2024/01/03 12:26:29;;;;;;;12.25;2.83;;;9.70;99.90;;;;;;4995196;28;20119;-70
2024/01/03 12:29:02;;;;;;;13.30;3.28;;;9.70;99.90;;;;;;4986825;28;20057;-70
2024/01/03 12:31:27;;;;;;;14.35;2.97;;;9.70;99.90;;;;;;4998953;28;20120;-70
2024/01/03 12:34:03;;;;;;;11.52;3.22;;;9.60;99.90;;;;;;4986771;28;20509;-70
2024/01/03 12:36:29;;;;;;;17.08;3.28;;;9.70;99.90;;;;;;4996716;28;20473;-70
2024/01/03 12:38:59;;;;;;;15.93;2.58;;;9.70;99.90;;;;;;4986233;28;20064;-70
2024/01/03 12:41:25;;;;;;;12.00;2.63;;;9.70;99.90;;;;;;5000307;28;20054;-70
2024/01/03 12:43:53;;;;;;;13.02;2.38;;;9.70;99.90;;;;;;4999800;28;20042;-70
2024/01/03 12:46:19;;;;;;;9.50;2.30;;;9.80;99.90;;;;;;4981730;28;20081;-70
2024/01/03 12:48:45;;;;;;;16.02;3.05;;;9.80;99.90;;;;;;4998548;28;20088;-70
2024/01/03 12:51:10;;;;;;;10.35;3.15;;;9.90;99.90;;;;;;5020497;28;20488;-70
2024/01/03 12:53:37;;;;;;;10.57;2.53;;;9.80;99.90;;;;;;4999873;28;20190;-70